パゴパゴ の空港の天気 - METARとTAF

パゴパゴ国際空港 ( NSTU / PPG ) - アメリカ領サモア パゴパゴ
飛行場実況気象(Metar)
観測時間04/26 05:28 SST (04/26 16:28 UTC)
風向・風速北北東 6m/s
視程3200m
天気現象雷 強いしゅう雨
全天の4割程度の雲 雲底高度 430m
全天を覆う雲 雲底高度 1220m
気温25℃
湿度94%
気圧1008hPa
METARNSTU 261628Z 02011KT 2SM TS +SHRA SCT014CB OVC040 25/24 A2978 RMK OCNL LTGIC ALQDS TSB28 TS ALQDS CB ALQDS
過去の天気等 Google飛行場航空写真 Wunderground天気予報

過去48時間のMETAR

飛行場予報(TAF)
発表時間: 4/26 00:39 SST (4/26 11:39 UTC)
予報対象時間: 26日1時 SST ~ 27日1時 SST
風向・風速不定 2m/s
視程10km以上
天気現象周辺でしゅう雨
全天の4割程度の雲 雲底高度 460m
全天の8割程度の雲 雲底高度 1220m
全天の8割程度の雲 雲底高度 3050m
26日10時 SST から
風向・風速東北東 4m/s
視程10km以上
天気現象周辺でしゅう雨
全天の4割程度の雲 雲底高度 460m
全天の4割程度の雲 雲底高度 1070m
NSTU 261139Z 2612/2712 VRB04KT P6SM VCSH SCT015 BKN040 BKN100
FM262100 07007KT P6SM VCSH SCT015 SCT035